sensor_id;sensor_type;location;lat;lon;timestamp;temperature;humidity
52435;DHT22;38354;52.892;6.148;2022-07-30T04:01:41;15.70;99.90
52435;DHT22;38354;52.892;6.148;2022-07-30T04:32:03;15.60;99.90
52435;DHT22;38354;52.892;6.148;2022-07-30T04:35:03;15.60;99.90
52435;DHT22;38354;52.892;6.148;2022-07-30T04:37:40;15.60;99.90
52435;DHT22;38354;52.892;6.148;2022-07-30T04:40:06;15.50;99.90
52435;DHT22;38354;52.892;6.148;2022-07-30T04:42:38;15.50;99.90
52435;DHT22;38354;52.892;6.148;2022-07-30T04:45:32;15.50;99.90
52435;DHT22;38354;52.892;6.148;2022-07-30T04:48:18;15.40;99.90
52435;DHT22;38354;52.892;6.148;2022-07-30T04:54:39;15.40;99.90
52435;DHT22;38354;52.892;6.148;2022-07-30T04:57:24;15.40;99.90
52435;DHT22;38354;52.892;6.148;2022-07-30T05:02:55;15.40;99.90
52435;DHT22;38354;52.892;6.148;2022-07-30T05:15:18;15.60;99.90
52435;DHT22;38354;52.892;6.148;2022-07-30T05:18:00;15.60;99.90
52435;DHT22;38354;52.892;6.148;2022-07-30T05:21:01;15.70;99.90
52435;DHT22;38354;52.892;6.148;2022-07-30T05:53:50;16.20;99.90
52435;DHT22;38354;52.892;6.148;2022-07-30T05:56:16;16.30;99.90
52435;DHT22;38354;52.892;6.148;2022-07-30T05:58:42;16.30;99.90
52435;DHT22;38354;52.892;6.148;2022-07-30T06:01:07;16.40;99.90
52435;DHT22;38354;52.892;6.148;2022-07-30T06:03:33;16.50;99.90
52435;DHT22;38354;52.892;6.148;2022-07-30T06:06:01;16.50;99.90
52435;DHT22;38354;52.892;6.148;2022-07-30T06:08:26;16.50;99.90
52435;DHT22;38354;52.892;6.148;2022-07-30T06:10:52;16.60;99.90
52435;DHT22;38354;52.892;6.148;2022-07-30T06:13:18;16.70;99.90
52435;DHT22;38354;52.892;6.148;2022-07-30T06:15:43;16.70;99.90
52435;DHT22;38354;52.892;6.148;2022-07-30T06:18:09;16.70;99.90
52435;DHT22;38354;52.892;6.148;2022-07-30T06:20:35;16.70;99.90
52435;DHT22;38354;52.892;6.148;2022-07-30T06:23:00;16.80;99.90
52435;DHT22;38354;52.892;6.148;2022-07-30T06:25:26;16.80;99.90
52435;DHT22;38354;52.892;6.148;2022-07-30T06:27:52;16.80;99.90
52435;DHT22;38354;52.892;6.148;2022-07-30T06:30:18;16.90;99.90
52435;DHT22;38354;52.892;6.148;2022-07-30T06:32:43;16.90;99.90
52435;DHT22;38354;52.892;6.148;2022-07-30T06:35:10;17.00;99.90
52435;DHT22;38354;52.892;6.148;2022-07-30T06:37:36;17.00;99.90
52435;DHT22;38354;52.892;6.148;2022-07-30T06:40:01;17.00;99.90
52435;DHT22;38354;52.892;6.148;2022-07-30T06:42:27;17.10;99.90
52435;DHT22;38354;52.892;6.148;2022-07-30T06:44:53;17.20;99.90
52435;DHT22;38354;52.892;6.148;2022-07-30T06:47:22;17.30;99.90
52435;DHT22;38354;52.892;6.148;2022-07-30T06:49:53;17.40;99.90
52435;DHT22;38354;52.892;6.148;2022-07-30T06:52:19;17.50;99.90
52435;DHT22;38354;52.892;6.148;2022-07-30T06:54:44;17.50;99.90
52435;DHT22;38354;52.892;6.148;2022-07-30T06:57:11;17.70;99.90
52435;DHT22;38354;52.892;6.148;2022-07-30T06:59:37;17.70;99.90
52435;DHT22;38354;52.892;6.148;2022-07-30T07:02:22;17.70;99.90
52435;DHT22;38354;52.892;6.148;2022-07-30T07:07:24;17.90;99.90
52435;DHT22;38354;52.892;6.148;2022-07-30T07:09:49;18.00;99.90
52435;DHT22;38354;52.892;6.148;2022-07-30T07:12:15;18.00;99.90
52435;DHT22;38354;52.892;6.148;2022-07-30T07:14:41;18.10;99.90
52435;DHT22;38354;52.892;6.148;2022-07-30T07:17:07;18.10;99.90
52435;DHT22;38354;52.892;6.148;2022-07-30T07:19:33;18.20;99.90
52435;DHT22;38354;52.892;6.148;2022-07-30T07:21:59;18.20;99.90
52435;DHT22;38354;52.892;6.148;2022-07-30T07:24:24;18.30;99.90
52435;DHT22;38354;52.892;6.148;2022-07-30T07:26:53;18.30;99.90
52435;DHT22;38354;52.892;6.148;2022-07-30T07:29:19;18.30;99.90
52435;DHT22;38354;52.892;6.148;2022-07-30T07:31:44;18.40;99.90
52435;DHT22;38354;52.892;6.148;2022-07-30T07:34:10;18.50;99.90
52435;DHT22;38354;52.892;6.148;2022-07-30T07:36:36;18.50;99.90
52435;DHT22;38354;52.892;6.148;2022-07-30T07:39:03;18.40;99.90
52435;DHT22;38354;52.892;6.148;2022-07-30T07:41:37;18.30;99.90
52435;DHT22;38354;52.892;6.148;2022-07-30T07:44:04;18.30;99.90
52435;DHT22;38354;52.892;6.148;2022-07-30T07:46:30;18.40;99.90
52435;DHT22;38354;52.892;6.148;2022-07-30T07:48:56;18.50;99.90
52435;DHT22;38354;52.892;6.148;2022-07-30T07:51:22;18.60;99.90
52435;DHT22;38354;52.892;6.148;2022-07-30T07:53:51;18.70;99.90
52435;DHT22;38354;52.892;6.148;2022-07-30T07:56:26;18.80;99.90
52435;DHT22;38354;52.892;6.148;2022-07-30T07:58:52;18.70;99.90
52435;DHT22;38354;52.892;6.148;2022-07-30T08:01:55;18.70;99.90
52435;DHT22;38354;52.892;6.148;2022-07-30T08:04:24;18.70;99.90
52435;DHT22;38354;52.892;6.148;2022-07-30T08:07:05;18.80;99.90
52435;DHT22;38354;52.892;6.148;2022-07-30T08:13:51;19.00;99.90
52435;DHT22;38354;52.892;6.148;2022-07-30T08:16:35;19.00;99.90
52435;DHT22;38354;52.892;6.148;2022-07-30T08:19:10;19.10;99.90
52435;DHT22;38354;52.892;6.148;2022-07-30T08:21:36;19.20;99.90
52435;DHT22;38354;52.892;6.148;2022-07-30T08:24:02;19.20;99.90
52435;DHT22;38354;52.892;6.148;2022-07-30T08:26:36;19.30;99.90
52435;DHT22;38354;52.892;6.148;2022-07-30T08:29:02;19.30;99.90
52435;DHT22;38354;52.892;6.148;2022-07-30T08:31:56;19.50;99.90
52435;DHT22;38354;52.892;6.148;2022-07-30T08:34:22;19.50;99.90
52435;DHT22;38354;52.892;6.148;2022-07-30T08:39:27;19.40;99.90
52435;DHT22;38354;52.892;6.148;2022-07-30T08:41:53;19.50;99.90
52435;DHT22;38354;52.892;6.148;2022-07-30T08:44:19;19.50;99.90
52435;DHT22;38354;52.892;6.148;2022-07-30T08:46:46;19.50;99.90
52435;DHT22;38354;52.892;6.148;2022-07-30T08:49:14;19.60;99.90
52435;DHT22;38354;52.892;6.148;2022-07-30T08:51:40;19.70;99.90
52435;DHT22;38354;52.892;6.148;2022-07-30T08:54:06;19.80;99.90
52435;DHT22;38354;52.892;6.148;2022-07-30T08:56:33;19.90;99.90
52435;DHT22;38354;52.892;6.148;2022-07-30T08:58:59;19.90;99.90
52435;DHT22;38354;52.892;6.148;2022-07-30T09:01:29;20.00;99.90
52435;DHT22;38354;52.892;6.148;2022-07-30T09:03:54;20.00;99.90
52435;DHT22;38354;52.892;6.148;2022-07-30T09:06:20;20.10;99.90
52435;DHT22;38354;52.892;6.148;2022-07-30T09:08:46;20.20;99.90
52435;DHT22;38354;52.892;6.148;2022-07-30T09:11:12;20.20;99.90
52435;DHT22;38354;52.892;6.148;2022-07-30T09:13:40;20.30;99.90
52435;DHT22;38354;52.892;6.148;2022-07-30T09:16:22;20.20;99.90
52435;DHT22;38354;52.892;6.148;2022-07-30T09:18:48;20.20;99.90
52435;DHT22;38354;52.892;6.148;2022-07-30T09:21:20;20.30;99.90
52435;DHT22;38354;52.892;6.148;2022-07-30T09:26:21;20.60;99.90
52435;DHT22;38354;52.892;6.148;2022-07-30T09:28:46;20.80;99.90
52435;DHT22;38354;52.892;6.148;2022-07-30T09:31:12;20.90;99.90
52435;DHT22;38354;52.892;6.148;2022-07-30T09:33:45;21.00;99.90
52435;DHT22;38354;52.892;6.148;2022-07-30T09:36:14;21.00;99.90
52435;DHT22;38354;52.892;6.148;2022-07-30T09:38:52;21.10;99.90
52435;DHT22;38354;52.892;6.148;2022-07-30T09:41:30;21.20;99.90
52435;DHT22;38354;52.892;6.148;2022-07-30T09:43:56;21.10;99.90
52435;DHT22;38354;52.892;6.148;2022-07-30T09:46:42;21.00;99.90
52435;DHT22;38354;52.892;6.148;2022-07-30T09:49:19;20.90;99.90
52435;DHT22;38354;52.892;6.148;2022-07-30T09:51:46;21.10;99.90
52435;DHT22;38354;52.892;6.148;2022-07-30T09:54:12;21.10;99.90
52435;DHT22;38354;52.892;6.148;2022-07-30T09:56:37;21.40;99.90
52435;DHT22;38354;52.892;6.148;2022-07-30T09:59:05;21.50;99.90
52435;DHT22;38354;52.892;6.148;2022-07-30T10:01:50;21.60;99.90
52435;DHT22;38354;52.892;6.148;2022-07-30T10:04:27;21.50;99.90
52435;DHT22;38354;52.892;6.148;2022-07-30T10:06:53;21.50;99.90
52435;DHT22;38354;52.892;6.148;2022-07-30T10:09:27;21.60;99.90
52435;DHT22;38354;52.892;6.148;2022-07-30T10:11:56;21.90;99.90
52435;DHT22;38354;52.892;6.148;2022-07-30T10:14:24;22.10;99.90
52435;DHT22;38354;52.892;6.148;2022-07-30T10:16:53;22.00;99.90
52435;DHT22;38354;52.892;6.148;2022-07-30T10:19:19;21.70;99.90
52435;DHT22;38354;52.892;6.148;2022-07-30T10:21:45;21.70;99.90
52435;DHT22;38354;52.892;6.148;2022-07-30T10:24:11;21.80;99.90
52435;DHT22;38354;52.892;6.148;2022-07-30T10:26:40;21.90;99.90
52435;DHT22;38354;52.892;6.148;2022-07-30T10:29:07;22.00;99.90
52435;DHT22;38354;52.892;6.148;2022-07-30T10:31:33;21.90;99.90
52435;DHT22;38354;52.892;6.148;2022-07-30T10:33:59;22.00;99.90
52435;DHT22;38354;52.892;6.148;2022-07-30T10:36:26;22.00;99.90
52435;DHT22;38354;52.892;6.148;2022-07-30T10:38:53;22.20;99.90
52435;DHT22;38354;52.892;6.148;2022-07-30T10:44:46;22.40;99.90
52435;DHT22;38354;52.892;6.148;2022-07-30T10:47:16;22.30;99.90
52435;DHT22;38354;52.892;6.148;2022-07-30T10:52:48;22.60;99.90
52435;DHT22;38354;52.892;6.148;2022-07-30T10:55:28;22.60;99.90
52435;DHT22;38354;52.892;6.148;2022-07-30T10:58:07;22.40;99.90
52435;DHT22;38354;52.892;6.148;2022-07-30T11:03:21;22.40;99.90
52435;DHT22;38354;52.892;6.148;2022-07-30T11:05:49;22.50;99.90
52435;DHT22;38354;52.892;6.148;2022-07-30T11:08:28;22.60;99.90
52435;DHT22;38354;52.892;6.148;2022-07-30T11:10:54;22.70;99.90
52435;DHT22;38354;52.892;6.148;2022-07-30T11:16:16;22.80;99.90
52435;DHT22;38354;52.892;6.148;2022-07-30T11:19:04;22.90;99.90
52435;DHT22;38354;52.892;6.148;2022-07-30T11:21:31;22.90;99.90
52435;DHT22;38354;52.892;6.148;2022-07-30T11:23:58;22.70;99.90
52435;DHT22;38354;52.892;6.148;2022-07-30T11:32:25;22.80;99.90
52435;DHT22;38354;52.892;6.148;2022-07-30T11:35:09;22.80;99.90
52435;DHT22;38354;52.892;6.148;2022-07-30T11:37:58;22.80;99.90
52435;DHT22;38354;52.892;6.148;2022-07-30T11:40:25;22.80;99.90
52435;DHT22;38354;52.892;6.148;2022-07-30T11:43:28;22.80;99.90
52435;DHT22;38354;52.892;6.148;2022-07-30T11:46:24;23.00;99.90
52435;DHT22;38354;52.892;6.148;2022-07-30T11:51:41;23.30;99.90
52435;DHT22;38354;52.892;6.148;2022-07-30T11:54:23;23.30;99.90
52435;DHT22;38354;52.892;6.148;2022-07-30T11:56:53;23.20;99.90
52435;DHT22;38354;52.892;6.148;2022-07-30T11:59:19;23.30;99.90
52435;DHT22;38354;52.892;6.148;2022-07-30T12:01:50;23.40;99.90
52435;DHT22;38354;52.892;6.148;2022-07-30T12:04:16;23.30;99.90
52435;DHT22;38354;52.892;6.148;2022-07-30T12:06:46;23.40;99.90
52435;DHT22;38354;52.892;6.148;2022-07-30T12:09:21;23.50;99.90
52435;DHT22;38354;52.892;6.148;2022-07-30T12:11:46;23.50;99.90
52435;DHT22;38354;52.892;6.148;2022-07-30T12:14:12;23.50;98.90
52435;DHT22;38354;52.892;6.148;2022-07-30T12:16:38;23.40;98.80
52435;DHT22;38354;52.892;6.148;2022-07-30T12:19:06;23.50;99.40
52435;DHT22;38354;52.892;6.148;2022-07-30T12:21:32;23.40;99.90
52435;DHT22;38354;52.892;6.148;2022-07-30T12:24:01;23.30;99.90
52435;DHT22;38354;52.892;6.148;2022-07-30T12:26:30;23.00;99.70
52435;DHT22;38354;52.892;6.148;2022-07-30T12:28:57;23.10;99.10
52435;DHT22;38354;52.892;6.148;2022-07-30T12:31:25;23.00;99.90
52435;DHT22;38354;52.892;6.148;2022-07-30T12:33:51;23.30;99.90
52435;DHT22;38354;52.892;6.148;2022-07-30T12:36:31;23.40;99.90
52435;DHT22;38354;52.892;6.148;2022-07-30T12:38:58;23.30;99.10
52435;DHT22;38354;52.892;6.148;2022-07-30T12:41:43;23.30;98.90
52435;DHT22;38354;52.892;6.148;2022-07-30T12:44:09;23.30;99.80
52435;DHT22;38354;52.892;6.148;2022-07-30T12:46:40;23.20;98.80
52435;DHT22;38354;52.892;6.148;2022-07-30T12:49:07;23.30;98.80
52435;DHT22;38354;52.892;6.148;2022-07-30T12:51:39;23.50;97.80
52435;DHT22;38354;52.892;6.148;2022-07-30T12:54:16;23.30;98.10
52435;DHT22;38354;52.892;6.148;2022-07-30T12:56:56;23.10;98.40
52435;DHT22;38354;52.892;6.148;2022-07-30T12:59:22;23.20;99.20
52435;DHT22;38354;52.892;6.148;2022-07-30T13:01:48;23.20;99.90
52435;DHT22;38354;52.892;6.148;2022-07-30T13:04:16;23.20;99.40
52435;DHT22;38354;52.892;6.148;2022-07-30T13:06:42;22.90;98.90
52435;DHT22;38354;52.892;6.148;2022-07-30T13:09:18;23.00;99.30
52435;DHT22;38354;52.892;6.148;2022-07-30T13:11:45;23.20;97.80
52435;DHT22;38354;52.892;6.148;2022-07-30T13:14:12;23.30;96.90
52435;DHT22;38354;52.892;6.148;2022-07-30T13:16:39;23.00;96.40
52435;DHT22;38354;52.892;6.148;2022-07-30T13:19:06;22.80;94.50
52435;DHT22;38354;52.892;6.148;2022-07-30T13:21:33;22.70;95.60
52435;DHT22;38354;52.892;6.148;2022-07-30T13:23:59;22.70;93.90
52435;DHT22;38354;52.892;6.148;2022-07-30T13:26:25;22.80;93.90
52435;DHT22;38354;52.892;6.148;2022-07-30T13:28:54;23.00;94.40
52435;DHT22;38354;52.892;6.148;2022-07-30T13:31:21;23.00;93.50
52435;DHT22;38354;52.892;6.148;2022-07-30T13:33:46;23.20;94.00
52435;DHT22;38354;52.892;6.148;2022-07-30T13:36:12;23.20;91.60
52435;DHT22;38354;52.892;6.148;2022-07-30T13:38:38;23.00;92.30
52435;DHT22;38354;52.892;6.148;2022-07-30T13:41:04;23.10;93.20
52435;DHT22;38354;52.892;6.148;2022-07-30T13:43:30;23.00;93.40
52435;DHT22;38354;52.892;6.148;2022-07-30T13:45:56;23.00;94.00
52435;DHT22;38354;52.892;6.148;2022-07-30T13:48:22;23.10;94.90
52435;DHT22;38354;52.892;6.148;2022-07-30T13:50:47;23.00;95.40
52435;DHT22;38354;52.892;6.148;2022-07-30T13:53:15;23.10;95.50
52435;DHT22;38354;52.892;6.148;2022-07-30T13:55:40;23.20;95.50
52435;DHT22;38354;52.892;6.148;2022-07-30T13:58:08;23.20;94.80
52435;DHT22;38354;52.892;6.148;2022-07-30T14:00:35;23.30;92.90
52435;DHT22;38354;52.892;6.148;2022-07-30T14:03:04;23.30;90.00
52435;DHT22;38354;52.892;6.148;2022-07-30T14:05:30;23.40;87.80
52435;DHT22;38354;52.892;6.148;2022-07-30T14:08:02;23.20;85.60
52435;DHT22;38354;52.892;6.148;2022-07-30T14:10:28;22.90;87.70
52435;DHT22;38354;52.892;6.148;2022-07-30T14:12:55;23.00;88.90
52435;DHT22;38354;52.892;6.148;2022-07-30T14:15:25;22.90;89.70
52435;DHT22;38354;52.892;6.148;2022-07-30T14:17:51;22.80;91.10
52435;DHT22;38354;52.892;6.148;2022-07-30T14:20:18;22.80;90.40
52435;DHT22;38354;52.892;6.148;2022-07-30T14:22:44;22.70;90.00
52435;DHT22;38354;52.892;6.148;2022-07-30T14:25:09;22.80;90.20
52435;DHT22;38354;52.892;6.148;2022-07-30T14:27:36;22.80;90.60
52435;DHT22;38354;52.892;6.148;2022-07-30T14:30:03;22.70;90.00
52435;DHT22;38354;52.892;6.148;2022-07-30T14:32:29;22.70;90.00
52435;DHT22;38354;52.892;6.148;2022-07-30T14:34:55;22.60;89.90
52435;DHT22;38354;52.892;6.148;2022-07-30T14:37:20;22.70;90.30
52435;DHT22;38354;52.892;6.148;2022-07-30T14:39:46;22.80;91.80
52435;DHT22;38354;52.892;6.148;2022-07-30T14:42:12;22.80;91.40
52435;DHT22;38354;52.892;6.148;2022-07-30T14:44:38;22.90;92.40
52435;DHT22;38354;52.892;6.148;2022-07-30T14:47:03;22.90;92.30
52435;DHT22;38354;52.892;6.148;2022-07-30T14:49:29;22.90;92.60
52435;DHT22;38354;52.892;6.148;2022-07-30T14:51:55;22.80;93.20
52435;DHT22;38354;52.892;6.148;2022-07-30T14:54:21;22.70;94.20
52435;DHT22;38354;52.892;6.148;2022-07-30T14:56:47;22.70;94.60
52435;DHT22;38354;52.892;6.148;2022-07-30T14:59:12;22.70;95.10
52435;DHT22;38354;52.892;6.148;2022-07-30T15:01:38;22.70;95.10
52435;DHT22;38354;52.892;6.148;2022-07-30T15:04:06;22.70;95.90
52435;DHT22;38354;52.892;6.148;2022-07-30T15:06:34;22.60;97.00
52435;DHT22;38354;52.892;6.148;2022-07-30T15:09:01;22.70;97.20
52435;DHT22;38354;52.892;6.148;2022-07-30T15:11:26;22.80;97.70
52435;DHT22;38354;52.892;6.148;2022-07-30T15:13:52;22.80;97.50
52435;DHT22;38354;52.892;6.148;2022-07-30T15:16:18;22.80;97.90
52435;DHT22;38354;52.892;6.148;2022-07-30T15:18:44;22.60;98.80
52435;DHT22;38354;52.892;6.148;2022-07-30T15:21:10;22.60;99.60
52435;DHT22;38354;52.892;6.148;2022-07-30T15:23:37;22.50;99.90
52435;DHT22;38354;52.892;6.148;2022-07-30T15:26:03;22.50;99.90
52435;DHT22;38354;52.892;6.148;2022-07-30T15:28:29;22.40;99.50
52435;DHT22;38354;52.892;6.148;2022-07-30T15:30:55;22.40;99.90
52435;DHT22;38354;52.892;6.148;2022-07-30T15:33:21;22.40;99.90
52435;DHT22;38354;52.892;6.148;2022-07-30T15:35:46;22.40;99.90
52435;DHT22;38354;52.892;6.148;2022-07-30T15:38:12;22.40;99.90
52435;DHT22;38354;52.892;6.148;2022-07-30T15:40:38;22.40;99.90
52435;DHT22;38354;52.892;6.148;2022-07-30T15:43:04;22.40;99.90
52435;DHT22;38354;52.892;6.148;2022-07-30T15:45:30;22.50;99.90
52435;DHT22;38354;52.892;6.148;2022-07-30T15:47:55;22.60;99.90
52435;DHT22;38354;52.892;6.148;2022-07-30T15:50:21;22.60;99.90
52435;DHT22;38354;52.892;6.148;2022-07-30T15:52:48;22.50;99.90
52435;DHT22;38354;52.892;6.148;2022-07-30T15:55:14;22.50;99.90
52435;DHT22;38354;52.892;6.148;2022-07-30T15:57:40;22.50;99.90
52435;DHT22;38354;52.892;6.148;2022-07-30T16:00:06;22.50;99.90
52435;DHT22;38354;52.892;6.148;2022-07-30T16:02:33;22.40;99.90
52435;DHT22;38354;52.892;6.148;2022-07-30T16:04:59;22.50;99.90
52435;DHT22;38354;52.892;6.148;2022-07-30T16:07:24;22.40;99.90
52435;DHT22;38354;52.892;6.148;2022-07-30T16:09:50;22.40;99.90
52435;DHT22;38354;52.892;6.148;2022-07-30T16:12:16;22.40;99.90
52435;DHT22;38354;52.892;6.148;2022-07-30T16:14:42;22.70;99.90
52435;DHT22;38354;52.892;6.148;2022-07-30T16:17:08;22.90;99.90
52435;DHT22;38354;52.892;6.148;2022-07-30T16:19:36;23.10;99.90
52435;DHT22;38354;52.892;6.148;2022-07-30T16:22:02;23.20;99.90
52435;DHT22;38354;52.892;6.148;2022-07-30T16:27:03;23.40;99.90
52435;DHT22;38354;52.892;6.148;2022-07-30T16:29:29;23.40;99.90
52435;DHT22;38354;52.892;6.148;2022-07-30T16:31:55;23.30;99.90
52435;DHT22;38354;52.892;6.148;2022-07-30T16:34:20;23.30;99.90
52435;DHT22;38354;52.892;6.148;2022-07-30T16:36:47;23.10;99.90
52435;DHT22;38354;52.892;6.148;2022-07-30T16:39:13;23.10;99.90
52435;DHT22;38354;52.892;6.148;2022-07-30T16:41:39;22.80;99.90
52435;DHT22;38354;52.892;6.148;2022-07-30T16:44:04;22.70;99.90
52435;DHT22;38354;52.892;6.148;2022-07-30T16:46:30;22.70;99.90
52435;DHT22;38354;52.892;6.148;2022-07-30T16:48:56;22.60;99.90
52435;DHT22;38354;52.892;6.148;2022-07-30T16:51:21;22.40;99.90
52435;DHT22;38354;52.892;6.148;2022-07-30T16:53:47;22.40;99.90
52435;DHT22;38354;52.892;6.148;2022-07-30T16:57:01;22.40;99.90
52435;DHT22;38354;52.892;6.148;2022-07-30T16:59:05;22.40;99.90
52435;DHT22;38354;52.892;6.148;2022-07-30T17:01:31;22.40;99.90
52435;DHT22;38354;52.892;6.148;2022-07-30T17:03:58;22.30;99.90
52435;DHT22;38354;52.892;6.148;2022-07-30T17:06:24;22.20;99.90
52435;DHT22;38354;52.892;6.148;2022-07-30T17:08:50;22.10;99.90
52435;DHT22;38354;52.892;6.148;2022-07-30T17:11:15;22.10;99.90
52435;DHT22;38354;52.892;6.148;2022-07-30T17:13:41;22.00;99.90
52435;DHT22;38354;52.892;6.148;2022-07-30T17:16:08;22.00;99.90
52435;DHT22;38354;52.892;6.148;2022-07-30T17:18:34;21.80;99.90
52435;DHT22;38354;52.892;6.148;2022-07-30T17:21:00;21.70;99.90
52435;DHT22;38354;52.892;6.148;2022-07-30T17:23:26;21.70;99.90
52435;DHT22;38354;52.892;6.148;2022-07-30T17:25:52;21.60;99.90
52435;DHT22;38354;52.892;6.148;2022-07-30T17:28:20;21.60;99.90
52435;DHT22;38354;52.892;6.148;2022-07-30T17:30:47;21.60;99.90
52435;DHT22;38354;52.892;6.148;2022-07-30T17:33:12;21.50;99.90
52435;DHT22;38354;52.892;6.148;2022-07-30T17:35:41;21.60;99.90
52435;DHT22;38354;52.892;6.148;2022-07-30T17:38:07;21.50;99.90
52435;DHT22;38354;52.892;6.148;2022-07-30T17:40:32;21.50;99.90
52435;DHT22;38354;52.892;6.148;2022-07-30T17:42:59;21.50;99.90
52435;DHT22;38354;52.892;6.148;2022-07-30T17:45:28;21.50;99.90
52435;DHT22;38354;52.892;6.148;2022-07-30T17:47:54;21.60;99.90
52435;DHT22;38354;52.892;6.148;2022-07-30T17:50:20;21.60;99.90
52435;DHT22;38354;52.892;6.148;2022-07-30T17:52:46;21.60;99.90
52435;DHT22;38354;52.892;6.148;2022-07-30T17:55:11;21.60;99.90
52435;DHT22;38354;52.892;6.148;2022-07-30T17:57:38;21.40;99.90
52435;DHT22;38354;52.892;6.148;2022-07-30T18:00:06;21.40;99.90
52435;DHT22;38354;52.892;6.148;2022-07-30T18:02:33;21.50;99.90
52435;DHT22;38354;52.892;6.148;2022-07-30T18:04:59;21.40;99.90
52435;DHT22;38354;52.892;6.148;2022-07-30T18:07:25;21.40;99.90
52435;DHT22;38354;52.892;6.148;2022-07-30T18:09:51;21.40;99.90
52435;DHT22;38354;52.892;6.148;2022-07-30T18:14:52;21.40;99.90
52435;DHT22;38354;52.892;6.148;2022-07-30T18:17:18;21.40;99.90
52435;DHT22;38354;52.892;6.148;2022-07-30T18:19:46;21.40;99.90
52435;DHT22;38354;52.892;6.148;2022-07-30T18:22:12;21.40;99.90
52435;DHT22;38354;52.892;6.148;2022-07-30T18:24:38;21.40;99.90
52435;DHT22;38354;52.892;6.148;2022-07-30T18:27:04;21.30;99.90
52435;DHT22;38354;52.892;6.148;2022-07-30T18:29:29;21.20;99.90
52435;DHT22;38354;52.892;6.148;2022-07-30T18:31:55;21.30;99.90
52435;DHT22;38354;52.892;6.148;2022-07-30T18:34:24;21.20;99.90
52435;DHT22;38354;52.892;6.148;2022-07-30T18:36:50;21.20;99.90
52435;DHT22;38354;52.892;6.148;2022-07-30T18:39:17;21.20;99.90
52435;DHT22;38354;52.892;6.148;2022-07-30T18:41:43;21.10;99.90
52435;DHT22;38354;52.892;6.148;2022-07-30T18:44:08;21.20;99.90
52435;DHT22;38354;52.892;6.148;2022-07-30T18:46:34;21.10;99.90
52435;DHT22;38354;52.892;6.148;2022-07-30T18:49:00;21.20;99.90
52435;DHT22;38354;52.892;6.148;2022-07-30T18:51:25;21.20;99.90
52435;DHT22;38354;52.892;6.148;2022-07-30T18:53:54;21.20;99.90
52435;DHT22;38354;52.892;6.148;2022-07-30T18:56:23;21.20;99.90
52435;DHT22;38354;52.892;6.148;2022-07-30T18:58:49;21.20;99.90
52435;DHT22;38354;52.892;6.148;2022-07-30T19:01:15;21.20;99.90
52435;DHT22;38354;52.892;6.148;2022-07-30T19:03:43;21.10;99.90
52435;DHT22;38354;52.892;6.148;2022-07-30T19:06:09;21.10;99.90
52435;DHT22;38354;52.892;6.148;2022-07-30T19:08:35;21.10;99.90
52435;DHT22;38354;52.892;6.148;2022-07-30T19:11:00;21.10;99.90
52435;DHT22;38354;52.892;6.148;2022-07-30T19:13:26;21.10;99.90
52435;DHT22;38354;52.892;6.148;2022-07-30T19:15:52;21.00;99.90
52435;DHT22;38354;52.892;6.148;2022-07-30T19:18:18;21.00;99.90
52435;DHT22;38354;52.892;6.148;2022-07-30T19:20:44;21.00;99.90
52435;DHT22;38354;52.892;6.148;2022-07-30T19:23:09;21.00;99.90
52435;DHT22;38354;52.892;6.148;2022-07-30T19:25:36;21.00;99.90
52435;DHT22;38354;52.892;6.148;2022-07-30T19:28:10;20.90;99.90
52435;DHT22;38354;52.892;6.148;2022-07-30T19:31:03;20.90;99.90
52435;DHT22;38354;52.892;6.148;2022-07-30T19:33:29;20.90;99.90
52435;DHT22;38354;52.892;6.148;2022-07-30T19:35:55;20.80;99.90
52435;DHT22;38354;52.892;6.148;2022-07-30T19:38:21;20.70;99.90
52435;DHT22;38354;52.892;6.148;2022-07-30T19:40:46;20.70;99.90
52435;DHT22;38354;52.892;6.148;2022-07-30T19:43:12;20.70;99.90
52435;DHT22;38354;52.892;6.148;2022-07-30T19:45:38;20.60;99.90
52435;DHT22;38354;52.892;6.148;2022-07-30T19:48:05;20.60;99.90
52435;DHT22;38354;52.892;6.148;2022-07-30T19:50:36;20.50;99.90
52435;DHT22;38354;52.892;6.148;2022-07-30T19:53:03;20.50;99.90
52435;DHT22;38354;52.892;6.148;2022-07-30T19:55:28;20.50;99.90
52435;DHT22;38354;52.892;6.148;2022-07-30T19:57:54;20.50;99.90
52435;DHT22;38354;52.892;6.148;2022-07-30T20:03:12;20.40;99.90
52435;DHT22;38354;52.892;6.148;2022-07-30T20:05:40;20.40;99.90
52435;DHT22;38354;52.892;6.148;2022-07-30T20:08:06;20.30;99.90
52435;DHT22;38354;52.892;6.148;2022-07-30T20:10:33;20.30;99.90
52435;DHT22;38354;52.892;6.148;2022-07-30T20:12:59;20.30;99.90
52435;DHT22;38354;52.892;6.148;2022-07-30T20:15:25;20.30;99.90
52435;DHT22;38354;52.892;6.148;2022-07-30T20:17:51;20.30;99.90
52435;DHT22;38354;52.892;6.148;2022-07-30T20:20:20;20.30;99.90
52435;DHT22;38354;52.892;6.148;2022-07-30T20:22:46;20.30;99.90
52435;DHT22;38354;52.892;6.148;2022-07-30T20:25:11;20.20;99.90
52435;DHT22;38354;52.892;6.148;2022-07-30T20:27:40;20.20;99.90
52435;DHT22;38354;52.892;6.148;2022-07-30T20:30:10;20.20;99.90
52435;DHT22;38354;52.892;6.148;2022-07-30T20:32:36;20.20;99.90
52435;DHT22;38354;52.892;6.148;2022-07-30T20:35:07;20.20;99.90
52435;DHT22;38354;52.892;6.148;2022-07-30T20:37:33;20.10;99.90
52435;DHT22;38354;52.892;6.148;2022-07-30T20:40:02;20.10;99.90
52435;DHT22;38354;52.892;6.148;2022-07-30T20:42:30;20.10;99.90
52435;DHT22;38354;52.892;6.148;2022-07-30T20:45:22;20.10;99.90
52435;DHT22;38354;52.892;6.148;2022-07-30T20:55:23;20.00;99.90
52435;DHT22;38354;52.892;6.148;2022-07-30T20:58:02;19.90;99.90
52435;DHT22;38354;52.892;6.148;2022-07-30T21:00:31;19.90;99.90
52435;DHT22;38354;52.892;6.148;2022-07-30T21:02:58;19.90;99.90
52435;DHT22;38354;52.892;6.148;2022-07-30T21:05:23;19.90;99.90
52435;DHT22;38354;52.892;6.148;2022-07-30T21:07:49;19.90;99.90
52435;DHT22;38354;52.892;6.148;2022-07-30T21:10:37;19.90;99.90
52435;DHT22;38354;52.892;6.148;2022-07-30T21:13:19;19.90;99.90
52435;DHT22;38354;52.892;6.148;2022-07-30T21:15:51;19.80;99.90
52435;DHT22;38354;52.892;6.148;2022-07-30T21:21:20;19.80;99.90
52435;DHT22;38354;52.892;6.148;2022-07-30T21:23:52;19.80;99.90
52435;DHT22;38354;52.892;6.148;2022-07-30T21:26:20;19.80;99.90
52435;DHT22;38354;52.892;6.148;2022-07-30T21:28:46;19.80;99.90
52435;DHT22;38354;52.892;6.148;2022-07-30T21:31:33;19.80;99.90
52435;DHT22;38354;52.892;6.148;2022-07-30T21:33:59;19.80;99.90
52435;DHT22;38354;52.892;6.148;2022-07-30T21:36:26;19.80;99.90
52435;DHT22;38354;52.892;6.148;2022-07-30T21:38:51;19.80;99.90
52435;DHT22;38354;52.892;6.148;2022-07-30T21:41:17;19.70;99.90
52435;DHT22;38354;52.892;6.148;2022-07-30T21:43:44;19.70;99.90
52435;DHT22;38354;52.892;6.148;2022-07-30T21:46:11;19.70;99.90